sensor_id;sensor_type;location;lat;lon;timestamp;pressure;altitude;pressure_sealevel;temperature;humidity
77939;BME280;67136;47.546;21.630;2023-04-28T00:00:59;100784.62;;;6.23;72.00
77939;BME280;67136;47.546;21.630;2023-04-28T00:04:13;100793.16;;;6.25;71.90
77939;BME280;67136;47.546;21.630;2023-04-28T00:07:24;100788.63;;;6.29;71.57
77939;BME280;67136;47.546;21.630;2023-04-28T00:10:43;100795.00;;;6.23;70.75
77939;BME280;67136;47.546;21.630;2023-04-28T00:14:01;100796.25;;;6.32;70.99
77939;BME280;67136;47.546;21.630;2023-04-28T00:17:17;100788.63;;;6.29;70.49
77939;BME280;67136;47.546;21.630;2023-04-28T00:20:45;100793.84;;;6.29;69.93
77939;BME280;67136;47.546;21.630;2023-04-28T00:24:10;100799.03;;;6.29;69.78
77939;BME280;67136;47.546;21.630;2023-04-28T00:28:01;100802.38;;;6.31;69.83
77939;BME280;67136;47.546;21.630;2023-04-28T00:31:26;100797.19;;;6.31;69.78
77939;BME280;67136;47.546;21.630;2023-04-28T00:34:51;100794.88;;;6.26;70.20
77939;BME280;67136;47.546;21.630;2023-04-28T00:38:43;100793.84;;;6.29;70.59
77939;BME280;67136;47.546;21.630;2023-04-28T00:49:11;100799.37;;;6.23;71.22
77939;BME280;67136;47.546;21.630;2023-04-28T00:52:21;100803.72;;;6.22;71.19
77939;BME280;67136;47.546;21.630;2023-04-28T00:55:48;100796.94;;;6.20;71.09
77939;BME280;67136;47.546;21.630;2023-04-28T00:59:40;100801.41;;;6.18;70.94
77939;BME280;67136;47.546;21.630;2023-04-28T01:02:49;100800.75;;;6.14;70.61
77939;BME280;67136;47.546;21.630;2023-04-28T01:06:07;100800.06;;;6.11;70.75
77939;BME280;67136;47.546;21.630;2023-04-28T01:09:15;100796.13;;;6.04;70.85
77939;BME280;67136;47.546;21.630;2023-04-28T01:12:37;100800.94;;;5.96;71.02
77939;BME280;67136;47.546;21.630;2023-04-28T01:16:03;100804.28;;;5.82;71.19
77939;BME280;67136;47.546;21.630;2023-04-28T01:19:24;100803.91;;;5.73;71.24
77939;BME280;67136;47.546;21.630;2023-04-28T01:22:56;100798.38;;;5.63;71.57
77939;BME280;67136;47.546;21.630;2023-04-28T01:26:20;100803.22;;;5.54;71.93
77939;BME280;67136;47.546;21.630;2023-04-28T01:29:38;100802.03;;;5.44;71.81
77939;BME280;67136;47.546;21.630;2023-04-28T01:32:51;100807.53;;;5.38;71.82
77939;BME280;67136;47.546;21.630;2023-04-28T01:36:15;100807.88;;;5.32;71.74
77939;BME280;67136;47.546;21.630;2023-04-28T01:39:36;100802.69;;;5.32;71.86
77939;BME280;67136;47.546;21.630;2023-04-28T01:43:01;100806.34;;;5.28;72.21
77939;BME280;67136;47.546;21.630;2023-04-28T01:46:32;100808.50;;;5.20;72.76
77939;BME280;67136;47.546;21.630;2023-04-28T01:49:45;100807.31;;;5.09;73.56
77939;BME280;67136;47.546;21.630;2023-04-28T01:53:19;100806.13;;;4.99;73.80
77939;BME280;67136;47.546;21.630;2023-04-28T01:56:33;100809.19;;;4.90;74.43
77939;BME280;67136;47.546;21.630;2023-04-28T01:59:50;100815.19;;;4.74;74.34
77939;BME280;67136;47.546;21.630;2023-04-28T02:03:19;100818.19;;;4.66;74.57
77939;BME280;67136;47.546;21.630;2023-04-28T02:06:30;100818.62;;;4.57;76.21
77939;BME280;67136;47.546;21.630;2023-04-28T02:09:37;100821.53;;;4.51;76.14
77939;BME280;67136;47.546;21.630;2023-04-28T02:12:49;100816.63;;;4.45;76.27
77939;BME280;67136;47.546;21.630;2023-04-28T02:16:04;100820.22;;;4.43;76.22
77939;BME280;67136;47.546;21.630;2023-04-28T02:19:14;100825.56;;;4.40;76.04
77939;BME280;67136;47.546;21.630;2023-04-28T02:22:26;100824.03;;;4.36;76.19
77939;BME280;67136;47.546;21.630;2023-04-28T02:25:38;100827.00;;;4.28;76.23
77939;BME280;67136;47.546;21.630;2023-04-28T02:29:16;100826.31;;;4.25;76.37
77939;BME280;67136;47.546;21.630;2023-04-28T02:32:44;100830.78;;;4.21;76.94
77939;BME280;67136;47.546;21.630;2023-04-28T02:36:07;100822.41;;;4.16;77.05
77939;BME280;67136;47.546;21.630;2023-04-28T02:39:43;100823.75;;;4.06;77.23
77939;BME280;67136;47.546;21.630;2023-04-28T02:43:14;100819.78;;;3.99;78.10
77939;BME280;67136;47.546;21.630;2023-04-28T02:46:31;100826.06;;;3.94;78.59
77939;BME280;67136;47.546;21.630;2023-04-28T02:49:58;100823.06;;;3.84;79.30
77939;BME280;67136;47.546;21.630;2023-04-28T02:53:24;100815.88;;;3.72;79.45
77939;BME280;67136;47.546;21.630;2023-04-28T02:56:40;100818.25;;;3.58;79.69
77939;BME280;67136;47.546;21.630;2023-04-28T03:00:16;100818.06;;;3.44;80.30
77939;BME280;67136;47.546;21.630;2023-04-28T03:03:27;100817.81;;;3.30;81.21
77939;BME280;67136;47.546;21.630;2023-04-28T03:07:16;100826.75;;;3.23;81.52
77939;BME280;67136;47.546;21.630;2023-04-28T03:10:23;100825.59;;;3.10;81.99
77939;BME280;67136;47.546;21.630;2023-04-28T03:13:54;100829.41;;;3.01;82.58
77939;BME280;67136;47.546;21.630;2023-04-28T03:17:24;100830.06;;;3.06;85.48
77939;BME280;67136;47.546;21.630;2023-04-28T03:20:33;100837.81;;;3.06;85.40
77939;BME280;67136;47.546;21.630;2023-04-28T03:24:30;100838.88;;;3.02;84.55
77939;BME280;67136;47.546;21.630;2023-04-28T03:27:46;100847.41;;;3.23;84.40
77939;BME280;67136;47.546;21.630;2023-04-28T03:34:54;100846.41;;;3.07;84.88
77939;BME280;67136;47.546;21.630;2023-04-28T03:38:24;100851.25;;;2.94;84.68
77939;BME280;67136;47.546;21.630;2023-04-28T03:41:54;100853.00;;;2.94;85.04
77939;BME280;67136;47.546;21.630;2023-04-28T03:45:37;100864.88;;;2.98;85.34
77939;BME280;67136;47.546;21.630;2023-04-28T03:48:56;100871.19;;;2.91;85.47
77939;BME280;67136;47.546;21.630;2023-04-28T03:52:39;100871.72;;;2.99;86.97
77939;BME280;67136;47.546;21.630;2023-04-28T03:56:13;100877.91;;;2.95;86.16
77939;BME280;67136;47.546;21.630;2023-04-28T03:59:34;100874.31;;;2.99;86.18
77939;BME280;67136;47.546;21.630;2023-04-28T04:03:20;100880.19;;;3.02;86.79
77939;BME280;67136;47.546;21.630;2023-04-28T04:06:51;100891.16;;;3.07;86.39
77939;BME280;67136;47.546;21.630;2023-04-28T04:14:01;100888.69;;;3.04;86.80
77939;BME280;67136;47.546;21.630;2023-04-28T04:17:23;100890.38;;;3.05;86.71
77939;BME280;67136;47.546;21.630;2023-04-28T04:20:46;100896.06;;;3.13;87.69
77939;BME280;67136;47.546;21.630;2023-04-28T04:24:28;100891.41;;;3.21;87.75
77939;BME280;67136;47.546;21.630;2023-04-28T04:27:36;100897.06;;;3.29;86.92
77939;BME280;67136;47.546;21.630;2023-04-28T04:34:35;100901.13;;;3.55;85.77
77939;BME280;67136;47.546;21.630;2023-04-28T04:41:32;100900.28;;;3.73;85.24
77939;BME280;67136;47.546;21.630;2023-04-28T04:45:11;100909.31;;;3.83;85.54
77939;BME280;67136;47.546;21.630;2023-04-28T04:48:23;100909.41;;;4.00;84.98
77939;BME280;67136;47.546;21.630;2023-04-28T04:51:45;100901.84;;;4.14;85.01
77939;BME280;67136;47.546;21.630;2023-04-28T04:55:03;100907.84;;;4.33;84.85
77939;BME280;67136;47.546;21.630;2023-04-28T05:02:23;100918.37;;;4.83;83.66
77939;BME280;67136;47.546;21.630;2023-04-28T05:05:55;100914.94;;;4.99;82.81
77939;BME280;67136;47.546;21.630;2023-04-28T05:09:16;100921.94;;;5.15;82.20
77939;BME280;67136;47.546;21.630;2023-04-28T05:12:35;100919.81;;;5.23;81.85
77939;BME280;67136;47.546;21.630;2023-04-28T05:16:31;100921.78;;;5.35;81.58
77939;BME280;67136;47.546;21.630;2023-04-28T05:20:09;100912.22;;;5.52;81.40
77939;BME280;67136;47.546;21.630;2023-04-28T05:23:32;100910.84;;;5.62;81.63
77939;BME280;67136;47.546;21.630;2023-04-28T05:26:55;100915.37;;;5.74;81.16
77939;BME280;67136;47.546;21.630;2023-04-28T05:30:37;100919.41;;;5.80;80.82
77939;BME280;67136;47.546;21.630;2023-04-28T05:34:03;100921.66;;;6.03;80.32
77939;BME280;67136;47.546;21.630;2023-04-28T05:37:24;100928.19;;;6.25;79.68
77939;BME280;67136;47.546;21.630;2023-04-28T05:40:57;100929.19;;;6.54;79.30
77939;BME280;67136;47.546;21.630;2023-04-28T05:44:11;100926.78;;;6.81;77.56
77939;BME280;67136;47.546;21.630;2023-04-28T05:47:41;100929.00;;;7.02;76.87
77939;BME280;67136;47.546;21.630;2023-04-28T05:51:03;100926.97;;;7.65;74.63
77939;BME280;67136;47.546;21.630;2023-04-28T05:54:10;100928.78;;;8.47;71.08
77939;BME280;67136;47.546;21.630;2023-04-28T05:57:36;100931.44;;;8.99;67.39
77939;BME280;67136;47.546;21.630;2023-04-28T06:01:02;100934.84;;;9.51;67.01
77939;BME280;67136;47.546;21.630;2023-04-28T06:04:41;100931.53;;;9.37;61.78
77939;BME280;67136;47.546;21.630;2023-04-28T06:07:54;100929.19;;;9.07;55.30
77939;BME280;67136;47.546;21.630;2023-04-28T06:11:08;100933.81;;;9.41;55.51
77939;BME280;67136;47.546;21.630;2023-04-28T06:14:24;100932.47;;;9.73;54.31
77939;BME280;67136;47.546;21.630;2023-04-28T06:17:40;100931.91;;;9.93;51.13
77939;BME280;67136;47.546;21.630;2023-04-28T06:21:10;100933.53;;;10.92;50.12
77939;BME280;67136;47.546;21.630;2023-04-28T06:24:27;100934.56;;;11.70;47.78
77939;BME280;67136;47.546;21.630;2023-04-28T06:27:42;100931.81;;;12.15;44.92
77939;BME280;67136;47.546;21.630;2023-04-28T06:30:49;100935.13;;;13.14;44.02
77939;BME280;67136;47.546;21.630;2023-04-28T06:33:58;100933.53;;;13.94;42.63
77939;BME280;67136;47.546;21.630;2023-04-28T06:37:10;100934.50;;;13.42;41.78
77939;BME280;67136;47.546;21.630;2023-04-28T06:40:17;100936.81;;;12.29;43.59
77939;BME280;67136;47.546;21.630;2023-04-28T06:43:27;100928.56;;;12.34;43.43
77939;BME280;67136;47.546;21.630;2023-04-28T06:46:35;100930.34;;;11.56;45.32
77939;BME280;67136;47.546;21.630;2023-04-28T06:49:40;100933.25;;;11.64;44.24
77939;BME280;67136;47.546;21.630;2023-04-28T06:52:46;100931.25;;;11.22;45.88
77939;BME280;67136;47.546;21.630;2023-04-28T06:55:56;100941.81;;;11.66;45.10
77939;BME280;67136;47.546;21.630;2023-04-28T06:59:16;100942.31;;;12.04;44.30
77939;BME280;67136;47.546;21.630;2023-04-28T07:02:23;100945.66;;;11.95;44.70
77939;BME280;67136;47.546;21.630;2023-04-28T07:05:26;100941.56;;;12.35;44.73
77939;BME280;67136;47.546;21.630;2023-04-28T07:08:34;100935.34;;;12.47;44.49
77939;BME280;67136;47.546;21.630;2023-04-28T07:11:41;100934.25;;;12.50;44.58
77939;BME280;67136;47.546;21.630;2023-04-28T07:14:46;100935.16;;;12.71;43.85
77939;BME280;67136;47.546;21.630;2023-04-28T07:17:49;100937.12;;;13.21;42.55
77939;BME280;67136;47.546;21.630;2023-04-28T07:20:57;100934.78;;;13.39;41.82
77939;BME280;67136;47.546;21.630;2023-04-28T07:27:45;100939.81;;;13.10;39.01
77939;BME280;67136;47.546;21.630;2023-04-28T07:30:49;100934.38;;;13.23;38.81
77939;BME280;67136;47.546;21.630;2023-04-28T07:33:57;100938.47;;;13.16;37.79
77939;BME280;67136;47.546;21.630;2023-04-28T07:37:03;100934.88;;;13.58;37.05
77939;BME280;67136;47.546;21.630;2023-04-28T07:40:10;100935.06;;;13.96;36.75
77939;BME280;67136;47.546;21.630;2023-04-28T07:43:21;100939.16;;;14.59;37.71
77939;BME280;67136;47.546;21.630;2023-04-28T07:46:30;100919.59;;;14.42;36.20
77939;BME280;67136;47.546;21.630;2023-04-28T07:49:38;100928.09;;;14.65;35.75
77939;BME280;67136;47.546;21.630;2023-04-28T07:52:41;100926.53;;;16.22;33.30
77939;BME280;67136;47.546;21.630;2023-04-28T07:55:44;100927.12;;;16.87;33.02
77939;BME280;67136;47.546;21.630;2023-04-28T07:58:50;100928.94;;;17.48;32.27
77939;BME280;67136;47.546;21.630;2023-04-28T08:01:53;100919.25;;;18.65;30.21
77939;BME280;67136;47.546;21.630;2023-04-28T08:04:59;100917.12;;;19.57;28.40
77939;BME280;67136;47.546;21.630;2023-04-28T08:08:14;100912.38;;;19.91;28.15
77939;BME280;67136;47.546;21.630;2023-04-28T08:11:22;100918.72;;;21.13;25.80
77939;BME280;67136;47.546;21.630;2023-04-28T08:14:37;100914.22;;;21.13;24.33
77939;BME280;67136;47.546;21.630;2023-04-28T08:17:44;100902.38;;;19.54;26.21
77939;BME280;67136;47.546;21.630;2023-04-28T08:20:51;100910.47;;;18.23;28.41
77939;BME280;67136;47.546;21.630;2023-04-28T08:23:56;100907.47;;;21.25;25.13
77939;BME280;67136;47.546;21.630;2023-04-28T08:27:04;100905.66;;;21.69;23.53
77939;BME280;67136;47.546;21.630;2023-04-28T08:30:11;100909.19;;;21.18;24.09
77939;BME280;67136;47.546;21.630;2023-04-28T08:33:18;100888.63;;;22.79;22.46
77939;BME280;67136;47.546;21.630;2023-04-28T08:36:33;100896.50;;;23.63;22.41
77939;BME280;67136;47.546;21.630;2023-04-28T08:40:02;100892.97;;;20.60;22.97
77939;BME280;67136;47.546;21.630;2023-04-28T08:43:26;100900.41;;;23.12;21.45
77939;BME280;67136;47.546;21.630;2023-04-28T08:46:34;100902.16;;;23.26;21.61
77939;BME280;67136;47.546;21.630;2023-04-28T08:49:40;100892.22;;;21.85;21.65
77939;BME280;67136;47.546;21.630;2023-04-28T08:53:02;100886.28;;;24.01;19.95
77939;BME280;67136;47.546;21.630;2023-04-28T08:56:05;100876.72;;;23.02;20.61
77939;BME280;67136;47.546;21.630;2023-04-28T08:59:13;100873.94;;;21.82;21.85
77939;BME280;67136;47.546;21.630;2023-04-28T09:02:17;100880.91;;;22.12;22.00
77939;BME280;67136;47.546;21.630;2023-04-28T09:05:33;100885.50;;;22.96;21.28
77939;BME280;67136;47.546;21.630;2023-04-28T09:08:44;100885.59;;;23.58;19.39
77939;BME280;67136;47.546;21.630;2023-04-28T09:11:51;100873.28;;;24.51;19.24
77939;BME280;67136;47.546;21.630;2023-04-28T09:15:00;100871.56;;;26.82;18.19
77939;BME280;67136;47.546;21.630;2023-04-28T09:18:13;100870.06;;;23.13;20.09
77939;BME280;67136;47.546;21.630;2023-04-28T09:21:18;100866.97;;;23.37;19.37
77939;BME280;67136;47.546;21.630;2023-04-28T09:24:29;100863.41;;;24.45;18.83
77939;BME280;67136;47.546;21.630;2023-04-28T09:27:32;100865.34;;;25.04;17.79
77939;BME280;67136;47.546;21.630;2023-04-28T09:30:39;100856.47;;;23.63;18.12
77939;BME280;67136;47.546;21.630;2023-04-28T09:33:56;100857.84;;;23.04;18.62
77939;BME280;67136;47.546;21.630;2023-04-28T09:37:14;100854.63;;;24.71;17.90
77939;BME280;67136;47.546;21.630;2023-04-28T09:40:16;100839.16;;;24.67;18.68
77939;BME280;67136;47.546;21.630;2023-04-28T09:43:29;100845.44;;;21.10;21.71
77939;BME280;67136;47.546;21.630;2023-04-28T09:46:32;100834.56;;;21.49;21.98
77939;BME280;67136;47.546;21.630;2023-04-28T09:49:58;100834.41;;;23.48;20.02
77939;BME280;67136;47.546;21.630;2023-04-28T09:53:03;100829.06;;;26.48;17.64
77939;BME280;67136;47.546;21.630;2023-04-28T09:56:06;100832.34;;;23.22;20.85
77939;BME280;67136;47.546;21.630;2023-04-28T09:59:09;100834.97;;;22.46;21.65
77939;BME280;67136;47.546;21.630;2023-04-28T10:02:20;100823.66;;;22.08;21.77
77939;BME280;67136;47.546;21.630;2023-04-28T10:05:43;100821.50;;;24.79;19.87
77939;BME280;67136;47.546;21.630;2023-04-28T10:08:49;100822.03;;;23.47;20.51
77939;BME280;67136;47.546;21.630;2023-04-28T10:11:55;100819.78;;;24.58;19.25
77939;BME280;67136;47.546;21.630;2023-04-28T10:15:01;100806.63;;;24.63;18.60
77939;BME280;67136;47.546;21.630;2023-04-28T10:18:07;100802.47;;;26.71;17.68
77939;BME280;67136;47.546;21.630;2023-04-28T10:21:16;100799.03;;;25.12;18.36
77939;BME280;67136;47.546;21.630;2023-04-28T10:24:25;100800.50;;;22.66;21.30
77939;BME280;67136;47.546;21.630;2023-04-28T10:27:43;100791.88;;;23.94;19.62
77939;BME280;67136;47.546;21.630;2023-04-28T10:31:10;100785.25;;;25.79;17.95
77939;BME280;67136;47.546;21.630;2023-04-28T10:34:22;100784.81;;;25.38;18.05
77939;BME280;67136;47.546;21.630;2023-04-28T10:38:09;100784.75;;;27.38;16.99
77939;BME280;67136;47.546;21.630;2023-04-28T10:41:31;100778.97;;;26.42;17.08
77939;BME280;67136;47.546;21.630;2023-04-28T10:47:59;100775.97;;;21.63;21.69
77939;BME280;67136;47.546;21.630;2023-04-28T10:54:13;100775.50;;;23.63;19.46
77939;BME280;67136;47.546;21.630;2023-04-28T10:57:20;100772.09;;;23.34;19.31
77939;BME280;67136;47.546;21.630;2023-04-28T11:00:28;100763.59;;;24.19;19.26
77939;BME280;67136;47.546;21.630;2023-04-28T11:06:47;100756.50;;;26.61;16.83
77939;BME280;67136;47.546;21.630;2023-04-28T11:10:09;100753.75;;;29.06;15.73
77939;BME280;67136;47.546;21.630;2023-04-28T11:13:29;100746.34;;;28.90;15.44
77939;BME280;67136;47.546;21.630;2023-04-28T11:16:48;100749.19;;;26.50;16.89
77939;BME280;67136;47.546;21.630;2023-04-28T11:19:55;100745.87;;;30.07;14.88
77939;BME280;67136;47.546;21.630;2023-04-28T11:23:02;100738.06;;;26.96;16.37
77939;BME280;67136;47.546;21.630;2023-04-28T11:26:08;100748.22;;;26.69;16.93
77939;BME280;67136;47.546;21.630;2023-04-28T11:29:11;100739.06;;;25.33;17.72
77939;BME280;67136;47.546;21.630;2023-04-28T11:32:32;100744.12;;;26.60;16.84
77939;BME280;67136;47.546;21.630;2023-04-28T11:35:41;100737.94;;;24.37;18.39
77939;BME280;67136;47.546;21.630;2023-04-28T11:38:44;100727.53;;;25.26;18.59
77939;BME280;67136;47.546;21.630;2023-04-28T11:41:48;100732.37;;;24.72;18.57
77939;BME280;67136;47.546;21.630;2023-04-28T11:44:52;100734.63;;;24.55;19.05
77939;BME280;67136;47.546;21.630;2023-04-28T11:48:00;100726.03;;;24.73;18.65
77939;BME280;67136;47.546;21.630;2023-04-28T11:51:35;100723.34;;;22.92;19.87
77939;BME280;67136;47.546;21.630;2023-04-28T11:54:40;100715.66;;;25.09;18.36
77939;BME280;67136;47.546;21.630;2023-04-28T11:57:59;100710.06;;;25.17;18.03
77939;BME280;67136;47.546;21.630;2023-04-28T12:01:20;100705.78;;;23.98;18.74
77939;BME280;67136;47.546;21.630;2023-04-28T12:04:28;100702.00;;;25.74;17.69
77939;BME280;67136;47.546;21.630;2023-04-28T12:07:45;100697.38;;;24.67;18.73
77939;BME280;67136;47.546;21.630;2023-04-28T12:11:12;100698.22;;;24.74;18.47
77939;BME280;67136;47.546;21.630;2023-04-28T12:14:25;100689.62;;;25.42;17.95
77939;BME280;67136;47.546;21.630;2023-04-28T12:17:37;100687.84;;;26.97;17.07
77939;BME280;67136;47.546;21.630;2023-04-28T12:20:43;100694.75;;;27.47;16.98
77939;BME280;67136;47.546;21.630;2023-04-28T12:23:50;100685.09;;;25.36;18.16
77939;BME280;67136;47.546;21.630;2023-04-28T12:27:18;100680.75;;;27.86;16.02
77939;BME280;67136;47.546;21.630;2023-04-28T12:30:26;100672.50;;;27.04;15.80
77939;BME280;67136;47.546;21.630;2023-04-28T12:33:31;100671.53;;;27.64;15.57
77939;BME280;67136;47.546;21.630;2023-04-28T12:36:42;100664.13;;;29.51;14.67
77939;BME280;67136;47.546;21.630;2023-04-28T12:39:51;100647.41;;;29.77;15.21
77939;BME280;67136;47.546;21.630;2023-04-28T12:42:59;100661.00;;;30.15;14.43
77939;BME280;67136;47.546;21.630;2023-04-28T12:46:04;100641.03;;;28.64;14.91
77939;BME280;67136;47.546;21.630;2023-04-28T12:49:12;100645.81;;;26.90;17.01
77939;BME280;67136;47.546;21.630;2023-04-28T12:52:15;100637.00;;;28.43;15.59
77939;BME280;67136;47.546;21.630;2023-04-28T12:55:18;100642.88;;;28.63;14.89
77939;BME280;67136;47.546;21.630;2023-04-28T12:58:24;100618.66;;;28.63;14.97
77939;BME280;67136;47.546;21.630;2023-04-28T13:01:27;100613.53;;;28.50;15.10
77939;BME280;67136;47.546;21.630;2023-04-28T13:04:30;100606.37;;;28.56;15.82
77939;BME280;67136;47.546;21.630;2023-04-28T13:07:33;100599.56;;;28.76;15.28
77939;BME280;67136;47.546;21.630;2023-04-28T13:11:01;100609.50;;;28.87;15.49
77939;BME280;67136;47.546;21.630;2023-04-28T13:14:26;100607.31;;;28.15;15.63
77939;BME280;67136;47.546;21.630;2023-04-28T13:17:37;100594.72;;;29.58;14.76
77939;BME280;67136;47.546;21.630;2023-04-28T13:20:40;100594.50;;;28.91;15.12
77939;BME280;67136;47.546;21.630;2023-04-28T13:23:45;100591.31;;;25.80;17.58
77939;BME280;67136;47.546;21.630;2023-04-28T13:26:51;100581.44;;;27.02;16.37
77939;BME280;67136;47.546;21.630;2023-04-28T13:29:59;100577.84;;;25.62;17.55
77939;BME280;67136;47.546;21.630;2023-04-28T13:33:07;100573.66;;;25.97;17.15
77939;BME280;67136;47.546;21.630;2023-04-28T13:36:12;100575.22;;;25.80;17.34
77939;BME280;67136;47.546;21.630;2023-04-28T13:39:16;100581.44;;;26.05;17.28
77939;BME280;67136;47.546;21.630;2023-04-28T13:42:41;100574.12;;;25.63;17.50
77939;BME280;67136;47.546;21.630;2023-04-28T13:45:51;100563.16;;;24.96;18.03
77939;BME280;67136;47.546;21.630;2023-04-28T13:49:01;100571.06;;;24.65;18.02
77939;BME280;67136;47.546;21.630;2023-04-28T13:52:09;100566.97;;;25.13;17.79
77939;BME280;67136;47.546;21.630;2023-04-28T13:55:12;100573.38;;;23.70;19.04
77939;BME280;67136;47.546;21.630;2023-04-28T13:58:18;100562.94;;;22.27;20.95
77939;BME280;67136;47.546;21.630;2023-04-28T14:01:25;100562.28;;;23.66;19.68
77939;BME280;67136;47.546;21.630;2023-04-28T14:04:36;100557.78;;;23.73;19.75
77939;BME280;67136;47.546;21.630;2023-04-28T14:07:40;100555.72;;;23.88;19.47
77939;BME280;67136;47.546;21.630;2023-04-28T14:10:49;100538.47;;;24.10;19.43
77939;BME280;67136;47.546;21.630;2023-04-28T14:13:57;100538.03;;;23.35;20.17
77939;BME280;67136;47.546;21.630;2023-04-28T14:17:07;100525.28;;;25.30;18.53
77939;BME280;67136;47.546;21.630;2023-04-28T14:20:13;100525.37;;;25.10;19.13
77939;BME280;67136;47.546;21.630;2023-04-28T14:23:17;100524.09;;;23.72;20.15
77939;BME280;67136;47.546;21.630;2023-04-28T14:29:51;100516.09;;;23.98;19.97
77939;BME280;67136;47.546;21.630;2023-04-28T14:32:53;100520.94;;;22.63;21.52
77939;BME280;67136;47.546;21.630;2023-04-28T14:36:03;100521.53;;;22.65;21.69
77939;BME280;67136;47.546;21.630;2023-04-28T14:39:18;100520.03;;;22.49;21.44
77939;BME280;67136;47.546;21.630;2023-04-28T14:42:43;100522.44;;;23.39;20.85
77939;BME280;67136;47.546;21.630;2023-04-28T14:45:54;100518.09;;;23.44;20.50
77939;BME280;67136;47.546;21.630;2023-04-28T14:49:00;100511.75;;;23.84;20.55
77939;BME280;67136;47.546;21.630;2023-04-28T14:52:05;100494.47;;;23.93;20.39
77939;BME280;67136;47.546;21.630;2023-04-28T14:55:27;100507.91;;;22.47;21.40
77939;BME280;67136;47.546;21.630;2023-04-28T14:58:35;100503.75;;;23.39;20.50
77939;BME280;67136;47.546;21.630;2023-04-28T15:01:38;100499.25;;;23.65;20.22
77939;BME280;67136;47.546;21.630;2023-04-28T15:04:44;100505.97;;;22.62;21.48
77939;BME280;67136;47.546;21.630;2023-04-28T15:08:01;100504.81;;;20.97;23.38
77939;BME280;67136;47.546;21.630;2023-04-28T15:11:09;100495.84;;;21.61;22.99
77939;BME280;67136;47.546;21.630;2023-04-28T15:14:14;100489.19;;;21.72;23.00
77939;BME280;67136;47.546;21.630;2023-04-28T15:17:21;100487.56;;;21.29;23.29
77939;BME280;67136;47.546;21.630;2023-04-28T15:20:33;100475.75;;;21.10;23.44
77939;BME280;67136;47.546;21.630;2023-04-28T15:23:42;100479.97;;;19.82;24.81
77939;BME280;67136;47.546;21.630;2023-04-28T15:26:45;100471.81;;;19.01;25.95
77939;BME280;67136;47.546;21.630;2023-04-28T15:29:49;100473.03;;;18.90;26.02
77939;BME280;67136;47.546;21.630;2023-04-28T15:32:58;100475.00;;;19.19;25.84
77939;BME280;67136;47.546;21.630;2023-04-28T15:36:05;100485.38;;;18.75;27.36
77939;BME280;67136;47.546;21.630;2023-04-28T15:39:07;100479.94;;;18.30;27.45
77939;BME280;67136;47.546;21.630;2023-04-28T15:42:14;100472.31;;;18.35;26.88
77939;BME280;67136;47.546;21.630;2023-04-28T15:45:20;100471.75;;;18.09;27.46
77939;BME280;67136;47.546;21.630;2023-04-28T15:48:27;100462.25;;;17.68;27.96
77939;BME280;67136;47.546;21.630;2023-04-28T15:51:34;100461.41;;;17.59;27.61
77939;BME280;67136;47.546;21.630;2023-04-28T15:54:51;100459.75;;;17.34;27.98
77939;BME280;67136;47.546;21.630;2023-04-28T15:58:00;100446.34;;;16.87;28.60
77939;BME280;67136;47.546;21.630;2023-04-28T16:01:10;100451.56;;;16.55;29.47
77939;BME280;67136;47.546;21.630;2023-04-28T16:04:18;100449.44;;;16.25;30.56
77939;BME280;67136;47.546;21.630;2023-04-28T16:07:30;100449.44;;;16.25;30.11
77939;BME280;67136;47.546;21.630;2023-04-28T16:10:49;100451.75;;;16.28;30.10
77939;BME280;67136;47.546;21.630;2023-04-28T16:14:03;100450.78;;;16.29;30.14
77939;BME280;67136;47.546;21.630;2023-04-28T16:17:13;100451.38;;;16.15;30.93
77939;BME280;67136;47.546;21.630;2023-04-28T16:20:18;100436.97;;;15.76;31.62
77939;BME280;67136;47.546;21.630;2023-04-28T16:23:32;100438.59;;;15.69;31.66
77939;BME280;67136;47.546;21.630;2023-04-28T16:26:44;100433.22;;;15.53;31.98
77939;BME280;67136;47.546;21.630;2023-04-28T16:29:48;100427.28;;;15.16;32.54
77939;BME280;67136;47.546;21.630;2023-04-28T16:33:12;100426.03;;;15.20;32.31
77939;BME280;67136;47.546;21.630;2023-04-28T16:36:19;100419.13;;;15.01;32.62
77939;BME280;67136;47.546;21.630;2023-04-28T16:39:26;100424.69;;;14.98;32.71
77939;BME280;67136;47.546;21.630;2023-04-28T16:42:32;100417.75;;;14.97;32.90
77939;BME280;67136;47.546;21.630;2023-04-28T16:45:36;100416.19;;;14.86;32.59
77939;BME280;67136;47.546;21.630;2023-04-28T16:48:45;100416.78;;;14.80;33.61
77939;BME280;67136;47.546;21.630;2023-04-28T16:52:01;100421.59;;;14.67;33.45
77939;BME280;67136;47.546;21.630;2023-04-28T16:55:09;100422.78;;;14.55;34.19
77939;BME280;67136;47.546;21.630;2023-04-28T16:58:15;100411.41;;;14.55;33.87
77939;BME280;67136;47.546;21.630;2023-04-28T17:01:21;100414.41;;;14.42;34.24
77939;BME280;67136;47.546;21.630;2023-04-28T17:04:44;100415.16;;;14.35;34.29
77939;BME280;67136;47.546;21.630;2023-04-28T17:07:54;100413.41;;;14.26;35.21
77939;BME280;67136;47.546;21.630;2023-04-28T17:11:03;100405.66;;;14.15;35.54
77939;BME280;67136;47.546;21.630;2023-04-28T17:14:10;100404.34;;;14.01;35.58
77939;BME280;67136;47.546;21.630;2023-04-28T17:17:24;100400.22;;;13.99;36.00
77939;BME280;67136;47.546;21.630;2023-04-28T17:20:34;100397.91;;;13.86;36.61
77939;BME280;67136;47.546;21.630;2023-04-28T17:23:41;100403.47;;;13.83;36.43
77939;BME280;67136;47.546;21.630;2023-04-28T17:26:47;100401.72;;;13.74;36.26
77939;BME280;67136;47.546;21.630;2023-04-28T17:29:51;100402.19;;;13.60;36.63